Aviation Digital Data Service (ADDS)

Output produced by METARs form (0511 UTC 22 October 2018)
found at http://www.aviationweather.gov/metar/data/
 
METAR text: KIND 220454Z 21008KT 10SM CLR 03/M03 A3019 RMK AO2 SLP229 T00281028 401061022
Conditions at: KIND (INDIANAPOLIS , IN, US) observed 0454 UTC 22 October 2018
Temperature: 2.8°C (37°F)
Dewpoint: -2.8°C (27°F) [RH = 67%]
Pressure (altimeter): 30.19 inches Hg (1022.4 mb)
[Sea-level pressure: 1022.9 mb]
Winds: from the SSW (210 degrees) at 9 MPH (8 knots; 4.1 m/s)
Visibility: 10 or more miles (16+ km)
Ceiling: at least 12,000 feet AGL
Clouds: sky clear below 12,000 feet AGL
Weather: no significant weather observed at this time

Forecast for: KIND (INDIANAPOLIS , IN, US)
Text: KIND 220205Z 2202/2306 21006KT P6SM SKC
Forecast period: 0200 to 1600 UTC 22 October 2018
Forecast type: FROM: standard forecast or significant change
Winds: from the SSW (210 degrees) at 7 MPH (6 knots; 3.1 m/s)
Visibility: 6 or more miles 10+ km)
Clouds: clear skies
Weather: no significant weather forecast for this period
Text: FM221600 23009KT P6SM FEW250
Forecast period: 1600 UTC 22 October 2018 to 0600 UTC 23 October 2018
Forecast type: FROM: standard forecast or significant change
Winds: from the SW (230 degrees) at 10 MPH (9 knots; 4.6 m/s)
Visibility: 6 or more miles 10+ km)
Ceiling: at least 12,000 feet AGL
Clouds: few clouds at 25000 feet AGL
Weather: no significant weather forecast for this period